sensor_id;sensor_type;location;lat;lon;timestamp;P1;durP1;ratioP1;P2;durP2;ratioP2
10031;SDS011;5056;44.272;19.892;2022-10-16T00:02:05;12.27;;;10.50;;
10031;SDS011;5056;44.272;19.892;2022-10-16T00:07:42;13.33;;;11.30;;
10031;SDS011;5056;44.272;19.892;2022-10-16T00:10:11;11.50;;;10.40;;
10031;SDS011;5056;44.272;19.892;2022-10-16T00:12:40;12.93;;;10.33;;
10031;SDS011;5056;44.272;19.892;2022-10-16T00:15:09;11.97;;;10.20;;
10031;SDS011;5056;44.272;19.892;2022-10-16T00:17:39;11.90;;;10.27;;
10031;SDS011;5056;44.272;19.892;2022-10-16T00:20:06;13.00;;;10.70;;
10031;SDS011;5056;44.272;19.892;2022-10-16T00:22:34;12.27;;;10.67;;
10031;SDS011;5056;44.272;19.892;2022-10-16T00:25:05;13.37;;;10.40;;
10031;SDS011;5056;44.272;19.892;2022-10-16T00:27:33;15.90;;;12.13;;
10031;SDS011;5056;44.272;19.892;2022-10-16T00:30:01;10.87;;;9.77;;
10031;SDS011;5056;44.272;19.892;2022-10-16T00:32:31;14.87;;;9.90;;
10031;SDS011;5056;44.272;19.892;2022-10-16T00:34:58;10.33;;;9.20;;
10031;SDS011;5056;44.272;19.892;2022-10-16T00:37:29;12.80;;;9.83;;
10031;SDS011;5056;44.272;19.892;2022-10-16T00:39:56;11.73;;;10.20;;
10031;SDS011;5056;44.272;19.892;2022-10-16T00:42:24;12.50;;;10.40;;
10031;SDS011;5056;44.272;19.892;2022-10-16T00:45:00;13.07;;;10.20;;
10031;SDS011;5056;44.272;19.892;2022-10-16T00:47:46;13.17;;;10.70;;
10031;SDS011;5056;44.272;19.892;2022-10-16T00:50:18;12.00;;;10.80;;
10031;SDS011;5056;44.272;19.892;2022-10-16T00:52:48;12.27;;;10.43;;
10031;SDS011;5056;44.272;19.892;2022-10-16T00:55:17;15.43;;;9.90;;
10031;SDS011;5056;44.272;19.892;2022-10-16T00:57:46;11.00;;;9.90;;
10031;SDS011;5056;44.272;19.892;2022-10-16T01:00:15;14.50;;;11.33;;
10031;SDS011;5056;44.272;19.892;2022-10-16T01:02:55;12.43;;;10.53;;
10031;SDS011;5056;44.272;19.892;2022-10-16T01:05:23;11.90;;;9.83;;
10031;SDS011;5056;44.272;19.892;2022-10-16T01:08:37;12.50;;;9.20;;
10031;SDS011;5056;44.272;19.892;2022-10-16T01:14:23;10.13;;;8.70;;
10031;SDS011;5056;44.272;19.892;2022-10-16T01:16:56;9.90;;;8.83;;
10031;SDS011;5056;44.272;19.892;2022-10-16T01:19:31;10.63;;;8.67;;
10031;SDS011;5056;44.272;19.892;2022-10-16T01:22:06;10.77;;;8.80;;
10031;SDS011;5056;44.272;19.892;2022-10-16T01:24:37;9.47;;;8.43;;
10031;SDS011;5056;44.272;19.892;2022-10-16T01:27:15;10.57;;;8.47;;
10031;SDS011;5056;44.272;19.892;2022-10-16T01:30:02;10.57;;;9.13;;
10031;SDS011;5056;44.272;19.892;2022-10-16T01:32:36;10.57;;;8.50;;
10031;SDS011;5056;44.272;19.892;2022-10-16T01:35:09;9.20;;;8.20;;
10031;SDS011;5056;44.272;19.892;2022-10-16T01:37:39;9.37;;;7.73;;
10031;SDS011;5056;44.272;19.892;2022-10-16T01:40:09;8.90;;;8.00;;
10031;SDS011;5056;44.272;19.892;2022-10-16T01:42:40;10.23;;;8.53;;
10031;SDS011;5056;44.272;19.892;2022-10-16T01:45:11;9.73;;;8.77;;
10031;SDS011;5056;44.272;19.892;2022-10-16T01:47:43;9.57;;;8.20;;
10031;SDS011;5056;44.272;19.892;2022-10-16T01:50:12;9.70;;;8.70;;
10031;SDS011;5056;44.272;19.892;2022-10-16T01:52:48;9.37;;;8.53;;
10031;SDS011;5056;44.272;19.892;2022-10-16T01:55:17;9.93;;;8.93;;
10031;SDS011;5056;44.272;19.892;2022-10-16T01:57:48;9.57;;;8.63;;
10031;SDS011;5056;44.272;19.892;2022-10-16T02:00:17;9.27;;;8.40;;
10031;SDS011;5056;44.272;19.892;2022-10-16T02:02:48;8.30;;;7.33;;
10031;SDS011;5056;44.272;19.892;2022-10-16T02:05:18;9.33;;;7.33;;
10031;SDS011;5056;44.272;19.892;2022-10-16T02:07:50;7.80;;;7.00;;
10031;SDS011;5056;44.272;19.892;2022-10-16T02:10:17;9.90;;;8.00;;
10031;SDS011;5056;44.272;19.892;2022-10-16T02:12:47;13.20;;;8.07;;
10031;SDS011;5056;44.272;19.892;2022-10-16T02:15:21;8.63;;;7.73;;
10031;SDS011;5056;44.272;19.892;2022-10-16T02:17:50;8.90;;;7.80;;
10031;SDS011;5056;44.272;19.892;2022-10-16T02:20:18;9.53;;;8.10;;
10031;SDS011;5056;44.272;19.892;2022-10-16T02:22:52;10.20;;;8.20;;
10031;SDS011;5056;44.272;19.892;2022-10-16T02:25:22;9.37;;;8.23;;
10031;SDS011;5056;44.272;19.892;2022-10-16T02:27:54;9.87;;;8.80;;
10031;SDS011;5056;44.272;19.892;2022-10-16T02:30:25;9.00;;;8.10;;
10031;SDS011;5056;44.272;19.892;2022-10-16T02:32:56;8.60;;;7.73;;
10031;SDS011;5056;44.272;19.892;2022-10-16T02:35:25;8.97;;;8.03;;
10031;SDS011;5056;44.272;19.892;2022-10-16T02:37:55;8.30;;;7.50;;
10031;SDS011;5056;44.272;19.892;2022-10-16T02:40:26;8.90;;;8.00;;
10031;SDS011;5056;44.272;19.892;2022-10-16T02:42:55;9.03;;;7.77;;
10031;SDS011;5056;44.272;19.892;2022-10-16T02:45:25;9.13;;;8.17;;
10031;SDS011;5056;44.272;19.892;2022-10-16T02:47:52;11.37;;;8.13;;
10031;SDS011;5056;44.272;19.892;2022-10-16T02:50:19;9.53;;;8.53;;
10031;SDS011;5056;44.272;19.892;2022-10-16T02:52:48;9.27;;;8.37;;
10031;SDS011;5056;44.272;19.892;2022-10-16T02:55:15;8.40;;;7.60;;
10031;SDS011;5056;44.272;19.892;2022-10-16T02:57:43;8.23;;;7.30;;
10031;SDS011;5056;44.272;19.892;2022-10-16T03:00:13;10.23;;;7.87;;
10031;SDS011;5056;44.272;19.892;2022-10-16T03:02:41;9.57;;;7.23;;
10031;SDS011;5056;44.272;19.892;2022-10-16T03:05:08;10.70;;;8.30;;
10031;SDS011;5056;44.272;19.892;2022-10-16T03:07:36;9.87;;;8.60;;
10031;SDS011;5056;44.272;19.892;2022-10-16T03:10:08;9.43;;;8.53;;
10031;SDS011;5056;44.272;19.892;2022-10-16T03:12:35;8.87;;;8.07;;
10031;SDS011;5056;44.272;19.892;2022-10-16T03:15:08;10.63;;;8.97;;
10031;SDS011;5056;44.272;19.892;2022-10-16T03:17:41;9.43;;;8.00;;
10031;SDS011;5056;44.272;19.892;2022-10-16T03:20:08;10.07;;;8.10;;
10031;SDS011;5056;44.272;19.892;2022-10-16T03:22:36;10.50;;;7.97;;
10031;SDS011;5056;44.272;19.892;2022-10-16T03:25:04;9.07;;;7.70;;
10031;SDS011;5056;44.272;19.892;2022-10-16T03:27:33;9.43;;;8.53;;
10031;SDS011;5056;44.272;19.892;2022-10-16T03:30:00;9.13;;;8.23;;
10031;SDS011;5056;44.272;19.892;2022-10-16T03:32:30;10.07;;;9.07;;
10031;SDS011;5056;44.272;19.892;2022-10-16T03:34:57;9.97;;;8.60;;
10031;SDS011;5056;44.272;19.892;2022-10-16T03:37:25;9.27;;;8.17;;
10031;SDS011;5056;44.272;19.892;2022-10-16T03:39:52;10.13;;;8.57;;
10031;SDS011;5056;44.272;19.892;2022-10-16T03:42:20;8.43;;;7.60;;
10031;SDS011;5056;44.272;19.892;2022-10-16T03:44:46;10.57;;;8.43;;
10031;SDS011;5056;44.272;19.892;2022-10-16T03:47:15;9.23;;;8.33;;
10031;SDS011;5056;44.272;19.892;2022-10-16T03:49:48;12.87;;;9.03;;
10031;SDS011;5056;44.272;19.892;2022-10-16T03:52:15;11.33;;;10.33;;
10031;SDS011;5056;44.272;19.892;2022-10-16T03:54:44;17.13;;;15.43;;
10031;SDS011;5056;44.272;19.892;2022-10-16T03:57:12;17.40;;;15.80;;
10031;SDS011;5056;44.272;19.892;2022-10-16T03:59:41;12.30;;;11.20;;
10031;SDS011;5056;44.272;19.892;2022-10-16T04:02:08;12.20;;;10.67;;
10031;SDS011;5056;44.272;19.892;2022-10-16T04:04:40;9.97;;;8.93;;
10031;SDS011;5056;44.272;19.892;2022-10-16T04:07:08;11.13;;;8.97;;
10031;SDS011;5056;44.272;19.892;2022-10-16T04:09:35;8.63;;;7.73;;
10031;SDS011;5056;44.272;19.892;2022-10-16T04:12:04;11.50;;;10.33;;
10031;SDS011;5056;44.272;19.892;2022-10-16T04:14:31;12.63;;;10.27;;
10031;SDS011;5056;44.272;19.892;2022-10-16T04:16:59;12.37;;;11.10;;
10031;SDS011;5056;44.272;19.892;2022-10-16T04:19:26;11.40;;;10.20;;
10031;SDS011;5056;44.272;19.892;2022-10-16T04:21:53;11.27;;;9.67;;
10031;SDS011;5056;44.272;19.892;2022-10-16T04:24:24;12.53;;;11.10;;
10031;SDS011;5056;44.272;19.892;2022-10-16T04:26:51;14.87;;;10.40;;
10031;SDS011;5056;44.272;19.892;2022-10-16T04:29:31;19.90;;;15.17;;
10031;SDS011;5056;44.272;19.892;2022-10-16T04:32:01;17.67;;;14.50;;
10031;SDS011;5056;44.272;19.892;2022-10-16T04:34:29;21.10;;;18.67;;
10031;SDS011;5056;44.272;19.892;2022-10-16T04:36:56;17.90;;;15.83;;
10031;SDS011;5056;44.272;19.892;2022-10-16T04:41:58;9.93;;;8.93;;
10031;SDS011;5056;44.272;19.892;2022-10-16T04:44:27;11.87;;;8.43;;
10031;SDS011;5056;44.272;19.892;2022-10-16T04:46:55;8.23;;;7.50;;
10031;SDS011;5056;44.272;19.892;2022-10-16T04:49:25;9.23;;;7.30;;
10031;SDS011;5056;44.272;19.892;2022-10-16T04:51:59;8.77;;;7.87;;
10031;SDS011;5056;44.272;19.892;2022-10-16T04:54:26;13.23;;;8.07;;
10031;SDS011;5056;44.272;19.892;2022-10-16T04:56:57;8.30;;;7.23;;
10031;SDS011;5056;44.272;19.892;2022-10-16T04:59:25;8.77;;;7.73;;
10031;SDS011;5056;44.272;19.892;2022-10-16T05:01:53;7.70;;;7.10;;
10031;SDS011;5056;44.272;19.892;2022-10-16T05:04:20;9.43;;;7.53;;
10031;SDS011;5056;44.272;19.892;2022-10-16T05:06:49;12.07;;;7.60;;
10031;SDS011;5056;44.272;19.892;2022-10-16T05:09:19;9.77;;;7.53;;
10031;SDS011;5056;44.272;19.892;2022-10-16T05:11:46;9.33;;;7.83;;
10031;SDS011;5056;44.272;19.892;2022-10-16T05:14:16;10.80;;;8.40;;
10031;SDS011;5056;44.272;19.892;2022-10-16T05:16:44;10.07;;;8.17;;
10031;SDS011;5056;44.272;19.892;2022-10-16T05:19:13;8.77;;;7.33;;
10031;SDS011;5056;44.272;19.892;2022-10-16T05:21:40;9.67;;;7.50;;
10031;SDS011;5056;44.272;19.892;2022-10-16T05:24:08;8.77;;;7.77;;
10031;SDS011;5056;44.272;19.892;2022-10-16T05:26:37;11.47;;;8.20;;
10031;SDS011;5056;44.272;19.892;2022-10-16T05:29:04;9.50;;;7.93;;
10031;SDS011;5056;44.272;19.892;2022-10-16T05:31:35;9.77;;;8.10;;
10031;SDS011;5056;44.272;19.892;2022-10-16T05:34:03;14.20;;;8.23;;
10031;SDS011;5056;44.272;19.892;2022-10-16T05:36:30;9.13;;;8.17;;
10031;SDS011;5056;44.272;19.892;2022-10-16T05:39:01;11.90;;;8.77;;
10031;SDS011;5056;44.272;19.892;2022-10-16T05:41:28;9.67;;;8.70;;
10031;SDS011;5056;44.272;19.892;2022-10-16T05:43:57;12.10;;;9.17;;
10031;SDS011;5056;44.272;19.892;2022-10-16T05:46:24;11.50;;;10.30;;
10031;SDS011;5056;44.272;19.892;2022-10-16T05:48:55;12.30;;;11.00;;
10031;SDS011;5056;44.272;19.892;2022-10-16T05:51:22;14.50;;;11.73;;
10031;SDS011;5056;44.272;19.892;2022-10-16T05:53:52;15.63;;;12.30;;
10031;SDS011;5056;44.272;19.892;2022-10-16T05:56:20;17.70;;;13.17;;
10031;SDS011;5056;44.272;19.892;2022-10-16T05:58:48;14.63;;;12.27;;
10031;SDS011;5056;44.272;19.892;2022-10-16T06:01:16;14.77;;;12.03;;
10031;SDS011;5056;44.272;19.892;2022-10-16T06:03:44;15.50;;;12.07;;
10031;SDS011;5056;44.272;19.892;2022-10-16T06:06:16;17.10;;;11.17;;
10031;SDS011;5056;44.272;19.892;2022-10-16T06:08:45;13.30;;;11.33;;
10031;SDS011;5056;44.272;19.892;2022-10-16T06:11:13;15.63;;;12.40;;
10031;SDS011;5056;44.272;19.892;2022-10-16T06:13:41;19.97;;;12.77;;
10031;SDS011;5056;44.272;19.892;2022-10-16T06:16:12;14.13;;;10.83;;
10031;SDS011;5056;44.272;19.892;2022-10-16T06:18:42;13.43;;;10.90;;
10031;SDS011;5056;44.272;19.892;2022-10-16T06:21:10;10.13;;;9.10;;
10031;SDS011;5056;44.272;19.892;2022-10-16T06:23:40;10.95;;;9.85;;
10031;SDS011;5056;44.272;19.892;2022-10-16T06:26:07;17.52;;;10.27;;
10031;SDS011;5056;44.272;19.892;2022-10-16T06:28:37;11.10;;;10.00;;
10031;SDS011;5056;44.272;19.892;2022-10-16T06:31:06;10.82;;;9.82;;
10031;SDS011;5056;44.272;19.892;2022-10-16T06:33:34;9.70;;;8.85;;
10031;SDS011;5056;44.272;19.892;2022-10-16T06:36:02;14.90;;;10.02;;
10031;SDS011;5056;44.272;19.892;2022-10-16T06:38:30;11.25;;;10.07;;
10031;SDS011;5056;44.272;19.892;2022-10-16T06:41:00;16.52;;;12.30;;
10031;SDS011;5056;44.272;19.892;2022-10-16T06:43:28;12.07;;;10.55;;
10031;SDS011;5056;44.272;19.892;2022-10-16T06:45:58;12.05;;;10.82;;
10031;SDS011;5056;44.272;19.892;2022-10-16T06:51:50;12.35;;;10.85;;
10031;SDS011;5056;44.272;19.892;2022-10-16T06:54:17;12.40;;;11.07;;
10031;SDS011;5056;44.272;19.892;2022-10-16T06:56:46;11.90;;;10.45;;
10031;SDS011;5056;44.272;19.892;2022-10-16T06:59:12;12.48;;;10.35;;
10031;SDS011;5056;44.272;19.892;2022-10-16T07:01:40;12.60;;;10.25;;
10031;SDS011;5056;44.272;19.892;2022-10-16T07:04:07;12.80;;;11.30;;
10031;SDS011;5056;44.272;19.892;2022-10-16T07:06:33;13.52;;;10.60;;
10031;SDS011;5056;44.272;19.892;2022-10-16T07:09:03;11.68;;;10.57;;
10031;SDS011;5056;44.272;19.892;2022-10-16T07:11:32;12.00;;;10.93;;
10031;SDS011;5056;44.272;19.892;2022-10-16T07:14:02;10.85;;;9.85;;
10031;SDS011;5056;44.272;19.892;2022-10-16T07:16:30;13.32;;;11.10;;
10031;SDS011;5056;44.272;19.892;2022-10-16T07:18:58;11.68;;;10.35;;
10031;SDS011;5056;44.272;19.892;2022-10-16T07:21:29;12.50;;;11.32;;
10031;SDS011;5056;44.272;19.892;2022-10-16T07:24:03;13.98;;;12.57;;
10031;SDS011;5056;44.272;19.892;2022-10-16T07:26:36;13.60;;;12.20;;
10031;SDS011;5056;44.272;19.892;2022-10-16T07:29:09;15.90;;;14.00;;
10031;SDS011;5056;44.272;19.892;2022-10-16T07:31:39;16.67;;;14.50;;
10031;SDS011;5056;44.272;19.892;2022-10-16T07:34:07;14.52;;;13.02;;
10031;SDS011;5056;44.272;19.892;2022-10-16T07:36:35;15.93;;;14.25;;
10031;SDS011;5056;44.272;19.892;2022-10-16T07:39:03;15.60;;;14.00;;
10031;SDS011;5056;44.272;19.892;2022-10-16T07:41:31;16.42;;;14.75;;
10031;SDS011;5056;44.272;19.892;2022-10-16T07:46:35;16.63;;;14.93;;
10031;SDS011;5056;44.272;19.892;2022-10-16T07:49:03;15.63;;;14.23;;
10031;SDS011;5056;44.272;19.892;2022-10-16T07:51:30;16.08;;;14.40;;
10031;SDS011;5056;44.272;19.892;2022-10-16T07:53:58;14.45;;;13.05;;
10031;SDS011;5056;44.272;19.892;2022-10-16T07:56:30;14.55;;;11.75;;
10031;SDS011;5056;44.272;19.892;2022-10-16T07:59:00;14.23;;;11.70;;
10031;SDS011;5056;44.272;19.892;2022-10-16T08:01:30;12.07;;;10.85;;
10031;SDS011;5056;44.272;19.892;2022-10-16T08:04:00;12.32;;;11.13;;
10031;SDS011;5056;44.272;19.892;2022-10-16T08:06:27;11.05;;;10.05;;
10031;SDS011;5056;44.272;19.892;2022-10-16T08:08:55;14.15;;;12.65;;
10031;SDS011;5056;44.272;19.892;2022-10-16T08:11:29;11.98;;;10.77;;
10031;SDS011;5056;44.272;19.892;2022-10-16T08:13:59;12.68;;;11.45;;
10031;SDS011;5056;44.272;19.892;2022-10-16T08:16:30;13.60;;;11.05;;
10031;SDS011;5056;44.272;19.892;2022-10-16T08:18:57;12.68;;;11.00;;
10031;SDS011;5056;44.272;19.892;2022-10-16T08:21:25;14.15;;;11.20;;
10031;SDS011;5056;44.272;19.892;2022-10-16T08:23:53;12.35;;;11.15;;
10031;SDS011;5056;44.272;19.892;2022-10-16T08:29:45;12.40;;;10.60;;
10031;SDS011;5056;44.272;19.892;2022-10-16T08:32:18;11.88;;;10.60;;
10031;SDS011;5056;44.272;19.892;2022-10-16T08:34:45;12.52;;;11.38;;
10031;SDS011;5056;44.272;19.892;2022-10-16T08:37:23;14.18;;;11.27;;
10031;SDS011;5056;44.272;19.892;2022-10-16T08:39:50;11.68;;;10.57;;
10031;SDS011;5056;44.272;19.892;2022-10-16T08:42:28;12.13;;;10.85;;
10031;SDS011;5056;44.272;19.892;2022-10-16T08:45:14;10.45;;;9.32;;
10031;SDS011;5056;44.272;19.892;2022-10-16T08:47:51;10.82;;;9.82;;
10031;SDS011;5056;44.272;19.892;2022-10-16T08:50:24;10.63;;;9.48;;
10031;SDS011;5056;44.272;19.892;2022-10-16T08:52:53;10.05;;;9.15;;
10031;SDS011;5056;44.272;19.892;2022-10-16T08:55:26;9.15;;;8.25;;
10031;SDS011;5056;44.272;19.892;2022-10-16T08:57:57;8.35;;;7.55;;
10031;SDS011;5056;44.272;19.892;2022-10-16T09:03:46;8.80;;;7.75;;
10031;SDS011;5056;44.272;19.892;2022-10-16T09:06:40;8.30;;;7.47;;
10031;SDS011;5056;44.272;19.892;2022-10-16T09:09:17;8.13;;;7.32;;
10031;SDS011;5056;44.272;19.892;2022-10-16T09:11:59;7.68;;;6.88;;
10031;SDS011;5056;44.272;19.892;2022-10-16T09:14:34;9.77;;;8.15;;
10031;SDS011;5056;44.272;19.892;2022-10-16T09:17:18;8.60;;;7.70;;
10031;SDS011;5056;44.272;19.892;2022-10-16T09:19:53;9.07;;;8.02;;
10031;SDS011;5056;44.272;19.892;2022-10-16T09:22:26;8.15;;;7.45;;
10031;SDS011;5056;44.272;19.892;2022-10-16T09:24:54;9.95;;;6.82;;
10031;SDS011;5056;44.272;19.892;2022-10-16T09:27:24;7.80;;;7.10;;
10031;SDS011;5056;44.272;19.892;2022-10-16T09:29:54;9.32;;;6.85;;
10031;SDS011;5056;44.272;19.892;2022-10-16T09:34:57;8.02;;;7.30;;
10031;SDS011;5056;44.272;19.892;2022-10-16T09:37:24;7.72;;;6.97;;
10031;SDS011;5056;44.272;19.892;2022-10-16T09:39:53;8.00;;;7.20;;
10031;SDS011;5056;44.272;19.892;2022-10-16T09:42:30;9.10;;;7.18;;
10031;SDS011;5056;44.272;19.892;2022-10-16T09:44:58;7.85;;;7.20;;
10031;SDS011;5056;44.272;19.892;2022-10-16T09:47:25;7.35;;;6.75;;
10031;SDS011;5056;44.272;19.892;2022-10-16T09:49:58;8.73;;;7.80;;
10031;SDS011;5056;44.272;19.892;2022-10-16T09:52:29;7.78;;;7.03;;
10031;SDS011;5056;44.272;19.892;2022-10-16T09:54:58;6.85;;;6.18;;
10031;SDS011;5056;44.272;19.892;2022-10-16T09:57:29;6.60;;;6.00;;
10031;SDS011;5056;44.272;19.892;2022-10-16T10:00:08;7.85;;;6.22;;
10031;SDS011;5056;44.272;19.892;2022-10-16T10:02:37;6.30;;;5.70;;
10031;SDS011;5056;44.272;19.892;2022-10-16T10:05:16;6.75;;;6.05;;
10031;SDS011;5056;44.272;19.892;2022-10-16T10:07:52;6.63;;;6.07;;
10031;SDS011;5056;44.272;19.892;2022-10-16T10:10:22;7.60;;;5.93;;
10031;SDS011;5056;44.272;19.892;2022-10-16T10:12:56;6.75;;;6.15;;
10031;SDS011;5056;44.272;19.892;2022-10-16T10:15:25;6.72;;;6.05;;
10031;SDS011;5056;44.272;19.892;2022-10-16T10:17:57;7.38;;;6.68;;
10031;SDS011;5056;44.272;19.892;2022-10-16T10:20:28;7.10;;;6.40;;
10031;SDS011;5056;44.272;19.892;2022-10-16T10:22:59;7.60;;;6.43;;
10031;SDS011;5056;44.272;19.892;2022-10-16T10:25:36;6.57;;;5.97;;
10031;SDS011;5056;44.272;19.892;2022-10-16T10:28:24;7.00;;;6.43;;
10031;SDS011;5056;44.272;19.892;2022-10-16T10:31:06;8.05;;;6.40;;
10031;SDS011;5056;44.272;19.892;2022-10-16T10:33:39;7.00;;;6.05;;
10031;SDS011;5056;44.272;19.892;2022-10-16T10:36:16;6.30;;;5.70;;
10031;SDS011;5056;44.272;19.892;2022-10-16T10:38:56;6.88;;;6.22;;
10031;SDS011;5056;44.272;19.892;2022-10-16T10:41:40;7.30;;;6.47;;
10031;SDS011;5056;44.272;19.892;2022-10-16T10:44:31;7.50;;;5.82;;
10031;SDS011;5056;44.272;19.892;2022-10-16T10:47:06;8.48;;;6.57;;
10031;SDS011;5056;44.272;19.892;2022-10-16T10:49:42;7.75;;;6.28;;
10031;SDS011;5056;44.272;19.892;2022-10-16T10:52:30;7.22;;;6.03;;
10031;SDS011;5056;44.272;19.892;2022-10-16T10:55:12;5.55;;;5.15;;
10031;SDS011;5056;44.272;19.892;2022-10-16T10:57:49;6.53;;;5.60;;
10031;SDS011;5056;44.272;19.892;2022-10-16T11:00:26;6.80;;;6.05;;
10031;SDS011;5056;44.272;19.892;2022-10-16T11:02:57;7.55;;;6.05;;
10031;SDS011;5056;44.272;19.892;2022-10-16T11:05:32;6.07;;;5.35;;
10031;SDS011;5056;44.272;19.892;2022-10-16T11:08:09;5.75;;;5.35;;
10031;SDS011;5056;44.272;19.892;2022-10-16T11:10:42;6.43;;;5.93;;
10031;SDS011;5056;44.272;19.892;2022-10-16T11:13:20;7.07;;;6.22;;
10031;SDS011;5056;44.272;19.892;2022-10-16T11:15:57;5.15;;;4.75;;
10031;SDS011;5056;44.272;19.892;2022-10-16T11:18:33;6.22;;;5.78;;
10031;SDS011;5056;44.272;19.892;2022-10-16T11:21:10;7.38;;;5.78;;
10031;SDS011;5056;44.272;19.892;2022-10-16T11:23:44;6.93;;;6.10;;
10031;SDS011;5056;44.272;19.892;2022-10-16T11:26:14;6.55;;;5.95;;
10031;SDS011;5056;44.272;19.892;2022-10-16T11:28:45;6.25;;;5.75;;
10031;SDS011;5056;44.272;19.892;2022-10-16T11:31:16;6.50;;;5.70;;
10031;SDS011;5056;44.272;19.892;2022-10-16T11:33:47;7.78;;;6.47;;
10031;SDS011;5056;44.272;19.892;2022-10-16T11:36:19;7.47;;;6.22;;
10031;SDS011;5056;44.272;19.892;2022-10-16T11:38:52;8.82;;;6.38;;
10031;SDS011;5056;44.272;19.892;2022-10-16T11:41:26;6.95;;;6.25;;
10031;SDS011;5056;44.272;19.892;2022-10-16T11:43:58;7.70;;;6.68;;
10031;SDS011;5056;44.272;19.892;2022-10-16T11:46:32;6.70;;;6.10;;
10031;SDS011;5056;44.272;19.892;2022-10-16T11:49:06;6.90;;;6.20;;
10031;SDS011;5056;44.272;19.892;2022-10-16T11:51:36;8.27;;;6.68;;
10031;SDS011;5056;44.272;19.892;2022-10-16T11:54:08;8.23;;;6.30;;
10031;SDS011;5056;44.272;19.892;2022-10-16T11:56:49;7.90;;;6.35;;
10031;SDS011;5056;44.272;19.892;2022-10-16T11:59:20;11.18;;;6.38;;
10031;SDS011;5056;44.272;19.892;2022-10-16T12:01:51;9.40;;;6.07;;
10031;SDS011;5056;44.272;19.892;2022-10-16T12:04:21;9.77;;;6.20;;
10031;SDS011;5056;44.272;19.892;2022-10-16T12:06:55;7.13;;;6.10;;
10031;SDS011;5056;44.272;19.892;2022-10-16T12:09:27;10.55;;;6.43;;
10031;SDS011;5056;44.272;19.892;2022-10-16T12:11:57;6.97;;;6.28;;
10031;SDS011;5056;44.272;19.892;2022-10-16T12:14:35;7.28;;;6.57;;
10031;SDS011;5056;44.272;19.892;2022-10-16T12:19:57;7.90;;;5.75;;
10031;SDS011;5056;44.272;19.892;2022-10-16T12:22:25;5.93;;;5.43;;
10031;SDS011;5056;44.272;19.892;2022-10-16T12:24:57;8.07;;;5.72;;
10031;SDS011;5056;44.272;19.892;2022-10-16T12:27:27;6.70;;;5.85;;
10031;SDS011;5056;44.272;19.892;2022-10-16T12:29:55;6.30;;;5.63;;
10031;SDS011;5056;44.272;19.892;2022-10-16T12:32:26;5.90;;;5.35;;
10031;SDS011;5056;44.272;19.892;2022-10-16T12:34:56;7.82;;;6.60;;
10031;SDS011;5056;44.272;19.892;2022-10-16T12:37:26;8.23;;;6.78;;
10031;SDS011;5056;44.272;19.892;2022-10-16T12:39:56;6.80;;;6.10;;
10031;SDS011;5056;44.272;19.892;2022-10-16T12:42:33;6.80;;;6.20;;
10031;SDS011;5056;44.272;19.892;2022-10-16T12:45:01;9.10;;;6.32;;
10031;SDS011;5056;44.272;19.892;2022-10-16T12:47:47;9.25;;;6.30;;
10031;SDS011;5056;44.272;19.892;2022-10-16T12:50:30;7.53;;;6.40;;
10031;SDS011;5056;44.272;19.892;2022-10-16T12:52:59;6.28;;;5.68;;
10031;SDS011;5056;44.272;19.892;2022-10-16T12:55:30;5.90;;;5.47;;
10031;SDS011;5056;44.272;19.892;2022-10-16T13:00:53;6.07;;;5.57;;
10031;SDS011;5056;44.272;19.892;2022-10-16T13:06:13;8.20;;;5.88;;
10031;SDS011;5056;44.272;19.892;2022-10-16T13:08:57;7.07;;;5.60;;
10031;SDS011;5056;44.272;19.892;2022-10-16T13:11:41;7.78;;;5.80;;
10031;SDS011;5056;44.272;19.892;2022-10-16T13:14:19;7.53;;;5.88;;
10031;SDS011;5056;44.272;19.892;2022-10-16T13:16:57;7.35;;;6.00;;
10031;SDS011;5056;44.272;19.892;2022-10-16T13:19:31;6.63;;;5.85;;
10031;SDS011;5056;44.272;19.892;2022-10-16T13:22:04;6.35;;;5.75;;
10031;SDS011;5056;44.272;19.892;2022-10-16T13:24:43;7.43;;;6.78;;
10031;SDS011;5056;44.272;19.892;2022-10-16T13:27:21;7.85;;;7.15;;
10031;SDS011;5056;44.272;19.892;2022-10-16T13:29:52;8.30;;;7.25;;
10031;SDS011;5056;44.272;19.892;2022-10-16T13:32:20;7.65;;;6.85;;
10031;SDS011;5056;44.272;19.892;2022-10-16T13:34:48;9.32;;;7.30;;
10031;SDS011;5056;44.272;19.892;2022-10-16T13:37:24;6.70;;;6.20;;
10031;SDS011;5056;44.272;19.892;2022-10-16T13:40:01;7.97;;;6.93;;
10031;SDS011;5056;44.272;19.892;2022-10-16T13:42:33;9.20;;;7.07;;
10031;SDS011;5056;44.272;19.892;2022-10-16T13:45:00;6.85;;;6.25;;
10031;SDS011;5056;44.272;19.892;2022-10-16T13:47:28;7.13;;;6.38;;
10031;SDS011;5056;44.272;19.892;2022-10-16T13:49:58;7.60;;;6.90;;
10031;SDS011;5056;44.272;19.892;2022-10-16T13:52:26;7.60;;;6.80;;
10031;SDS011;5056;44.272;19.892;2022-10-16T13:54:53;6.32;;;5.75;;
10031;SDS011;5056;44.272;19.892;2022-10-16T13:57:21;6.90;;;6.30;;
10031;SDS011;5056;44.272;19.892;2022-10-16T13:59:50;6.60;;;5.85;;
10031;SDS011;5056;44.272;19.892;2022-10-16T14:02:20;7.72;;;6.95;;
10031;SDS011;5056;44.272;19.892;2022-10-16T14:04:51;7.70;;;7.05;;
10031;SDS011;5056;44.272;19.892;2022-10-16T14:07:19;7.07;;;6.47;;
10031;SDS011;5056;44.272;19.892;2022-10-16T14:09:50;7.22;;;6.63;;
10031;SDS011;5056;44.272;19.892;2022-10-16T14:12:18;6.93;;;6.30;;
10031;SDS011;5056;44.272;19.892;2022-10-16T14:14:46;7.07;;;6.32;;
10031;SDS011;5056;44.272;19.892;2022-10-16T14:17:16;9.50;;;7.60;;
10031;SDS011;5056;44.272;19.892;2022-10-16T14:19:46;7.97;;;7.22;;
10031;SDS011;5056;44.272;19.892;2022-10-16T14:22:30;7.97;;;7.15;;
10031;SDS011;5056;44.272;19.892;2022-10-16T14:24:59;9.68;;;8.68;;
10031;SDS011;5056;44.272;19.892;2022-10-16T14:27:29;9.30;;;8.40;;
10031;SDS011;5056;44.272;19.892;2022-10-16T14:30:14;8.02;;;7.32;;
10031;SDS011;5056;44.272;19.892;2022-10-16T14:32:54;8.77;;;6.22;;
10031;SDS011;5056;44.272;19.892;2022-10-16T14:35:22;7.40;;;6.70;;
10031;SDS011;5056;44.272;19.892;2022-10-16T14:37:51;10.35;;;8.68;;
10031;SDS011;5056;44.272;19.892;2022-10-16T14:40:19;13.48;;;10.27;;
10031;SDS011;5056;44.272;19.892;2022-10-16T14:42:47;18.33;;;10.70;;
10031;SDS011;5056;44.272;19.892;2022-10-16T14:45:18;13.35;;;8.60;;
10031;SDS011;5056;44.272;19.892;2022-10-16T14:47:47;10.55;;;8.35;;
10031;SDS011;5056;44.272;19.892;2022-10-16T14:50:18;9.27;;;7.38;;
10031;SDS011;5056;44.272;19.892;2022-10-16T14:52:44;14.77;;;8.80;;
10031;SDS011;5056;44.272;19.892;2022-10-16T14:55:11;8.48;;;7.10;;
10031;SDS011;5056;44.272;19.892;2022-10-16T14:57:39;7.07;;;6.47;;
10031;SDS011;5056;44.272;19.892;2022-10-16T15:00:13;7.90;;;6.95;;
10031;SDS011;5056;44.272;19.892;2022-10-16T15:02:43;7.30;;;6.60;;
10031;SDS011;5056;44.272;19.892;2022-10-16T15:05:12;9.25;;;6.30;;
10031;SDS011;5056;44.272;19.892;2022-10-16T15:07:44;7.00;;;6.40;;
10031;SDS011;5056;44.272;19.892;2022-10-16T15:10:11;8.13;;;7.32;;
10031;SDS011;5056;44.272;19.892;2022-10-16T15:12:39;8.77;;;7.32;;
10031;SDS011;5056;44.272;19.892;2022-10-16T15:17:55;8.80;;;7.93;;
10031;SDS011;5056;44.272;19.892;2022-10-16T15:20:25;9.25;;;8.38;;
10031;SDS011;5056;44.272;19.892;2022-10-16T15:22:56;10.27;;;7.82;;
10031;SDS011;5056;44.272;19.892;2022-10-16T15:25:29;9.05;;;7.60;;
10031;SDS011;5056;44.272;19.892;2022-10-16T15:28:02;8.98;;;8.07;;
10031;SDS011;5056;44.272;19.892;2022-10-16T15:30:36;10.43;;;8.55;;
10031;SDS011;5056;44.272;19.892;2022-10-16T15:33:08;10.13;;;9.13;;
10031;SDS011;5056;44.272;19.892;2022-10-16T15:35:38;10.35;;;9.10;;
10031;SDS011;5056;44.272;19.892;2022-10-16T15:38:11;10.27;;;9.32;;